sensor_id;sensor_type;location;lat;lon;timestamp;pressure;altitude;pressure_sealevel;temperature;humidity
11648;BME280;5880;52.342;9.662;2023-02-03T00:01:09;101408.47;;;11.65;60.42
11648;BME280;5880;52.342;9.662;2023-02-03T00:03:34;101413.97;;;11.65;60.51
11648;BME280;5880;52.342;9.662;2023-02-03T00:06:02;101406.97;;;11.69;60.33
11648;BME280;5880;52.342;9.662;2023-02-03T00:08:28;101387.41;;;11.65;60.39
11648;BME280;5880;52.342;9.662;2023-02-03T00:10:54;101380.88;;;11.66;60.58
11648;BME280;5880;52.342;9.662;2023-02-03T00:13:21;101390.09;;;11.72;60.39
11648;BME280;5880;52.342;9.662;2023-02-03T00:15:47;101381.88;;;11.72;60.55
11648;BME280;5880;52.342;9.662;2023-02-03T00:18:12;101386.28;;;11.73;60.40
11648;BME280;5880;52.342;9.662;2023-02-03T00:20:38;101378.94;;;11.73;60.37
11648;BME280;5880;52.342;9.662;2023-02-03T00:23:09;101373.84;;;11.77;60.31
11648;BME280;5880;52.342;9.662;2023-02-03T00:25:36;101375.75;;;11.76;60.60
11648;BME280;5880;52.342;9.662;2023-02-03T00:28:03;101359.53;;;11.75;60.57
11648;BME280;5880;52.342;9.662;2023-02-03T00:30:29;101359.09;;;11.78;60.54
11648;BME280;5880;52.342;9.662;2023-02-03T00:32:55;101371.25;;;11.82;60.38
11648;BME280;5880;52.342;9.662;2023-02-03T00:35:22;101380.94;;;11.84;60.55
11648;BME280;5880;52.342;9.662;2023-02-03T00:37:52;101377.16;;;11.86;60.68
11648;BME280;5880;52.342;9.662;2023-02-03T00:40:20;101377.97;;;11.86;60.63
11648;BME280;5880;52.342;9.662;2023-02-03T00:42:46;101373.59;;;11.85;60.38
11648;BME280;5880;52.342;9.662;2023-02-03T00:45:12;101369.78;;;11.86;60.63
11648;BME280;5880;52.342;9.662;2023-02-03T00:47:37;101370.81;;;11.92;60.42
11648;BME280;5880;52.342;9.662;2023-02-03T00:50:05;101361.75;;;11.91;60.56
11648;BME280;5880;52.342;9.662;2023-02-03T00:52:31;101359.25;;;11.90;60.54
11648;BME280;5880;52.342;9.662;2023-02-03T00:54:57;101360.91;;;11.91;60.33
11648;BME280;5880;52.342;9.662;2023-02-03T00:57:23;101368.47;;;11.95;60.52
11648;BME280;5880;52.342;9.662;2023-02-03T00:59:48;101371.19;;;11.95;60.26
11648;BME280;5880;52.342;9.662;2023-02-03T01:02:14;101372.91;;;11.96;60.50
11648;BME280;5880;52.342;9.662;2023-02-03T01:04:42;101360.03;;;11.97;60.22
11648;BME280;5880;52.342;9.662;2023-02-03T01:07:08;101355.16;;;11.99;60.52
11648;BME280;5880;52.342;9.662;2023-02-03T01:09:36;101345.03;;;11.99;60.34
11648;BME280;5880;52.342;9.662;2023-02-03T01:12:03;101348.25;;;11.96;60.29
11648;BME280;5880;52.342;9.662;2023-02-03T01:14:30;101376.84;;;12.00;60.30
11648;BME280;5880;52.342;9.662;2023-02-03T01:16:56;101363.16;;;12.00;60.47
11648;BME280;5880;52.342;9.662;2023-02-03T01:19:22;101371.97;;;12.02;60.12
11648;BME280;5880;52.342;9.662;2023-02-03T01:21:47;101365.66;;;12.02;60.35
11648;BME280;5880;52.342;9.662;2023-02-03T01:24:13;101373.88;;;12.02;60.40
11648;BME280;5880;52.342;9.662;2023-02-03T01:26:40;101370.06;;;12.03;60.21
11648;BME280;5880;52.342;9.662;2023-02-03T01:29:07;101369.88;;;12.04;60.07
11648;BME280;5880;52.342;9.662;2023-02-03T01:31:38;101368.78;;;12.06;60.44
11648;BME280;5880;52.342;9.662;2023-02-03T01:34:07;101368.78;;;12.06;60.24
11648;BME280;5880;52.342;9.662;2023-02-03T01:36:36;101358.69;;;12.06;60.21
11648;BME280;5880;52.342;9.662;2023-02-03T01:39:04;101366.66;;;12.08;60.38
11648;BME280;5880;52.342;9.662;2023-02-03T01:41:34;101361.19;;;12.08;60.40
11648;BME280;5880;52.342;9.662;2023-02-03T01:44:31;101373.00;;;12.08;60.28
11648;BME280;5880;52.342;9.662;2023-02-03T01:46:50;101371.09;;;12.09;60.02
11648;BME280;5880;52.342;9.662;2023-02-03T01:49:25;101366.91;;;12.06;60.05
11648;BME280;5880;52.342;9.662;2023-02-03T01:51:53;101355.34;;;12.04;60.37
11648;BME280;5880;52.342;9.662;2023-02-03T01:54:28;101348.09;;;12.10;60.07
11648;BME280;5880;52.342;9.662;2023-02-03T01:57:01;101343.44;;;12.10;60.14
11648;BME280;5880;52.342;9.662;2023-02-03T01:59:30;101334.03;;;12.06;60.37
11648;BME280;5880;52.342;9.662;2023-02-03T02:01:57;101334.41;;;12.10;59.91
11648;BME280;5880;52.342;9.662;2023-02-03T02:04:33;101337.97;;;12.10;60.21
11648;BME280;5880;52.342;9.662;2023-02-03T02:07:02;101320.94;;;12.08;60.25
11648;BME280;5880;52.342;9.662;2023-02-03T02:09:28;101308.91;;;12.09;60.21
11648;BME280;5880;52.342;9.662;2023-02-03T02:11:54;101303.44;;;12.09;60.23
11648;BME280;5880;52.342;9.662;2023-02-03T02:14:19;101303.44;;;12.09;59.93
11648;BME280;5880;52.342;9.662;2023-02-03T02:16:57;101285.69;;;12.12;59.79
11648;BME280;5880;52.342;9.662;2023-02-03T02:32:29;101251.81;;;12.06;60.01
11648;BME280;5880;52.342;9.662;2023-02-03T02:35:16;101244.22;;;12.08;60.12
11648;BME280;5880;52.342;9.662;2023-02-03T02:41:18;101264.00;;;12.10;60.11
11648;BME280;5880;52.342;9.662;2023-02-03T02:44:20;101258.28;;;12.12;59.87
11648;BME280;5880;52.342;9.662;2023-02-03T02:46:59;101270.69;;;12.14;60.19
11648;BME280;5880;52.342;9.662;2023-02-03T02:49:41;101266.66;;;12.17;59.99
11648;BME280;5880;52.342;9.662;2023-02-03T02:52:12;101262.88;;;12.18;60.02
11648;BME280;5880;52.342;9.662;2023-02-03T02:54:45;101264.94;;;12.22;59.94
11648;BME280;5880;52.342;9.662;2023-02-03T02:57:15;101243.00;;;12.22;59.68
11648;BME280;5880;52.342;9.662;2023-02-03T02:59:44;101228.69;;;12.20;60.03
11648;BME280;5880;52.342;9.662;2023-02-03T03:02:10;101237.06;;;12.25;59.50
11648;BME280;5880;52.342;9.662;2023-02-03T03:04:36;101230.50;;;12.27;59.91
11648;BME280;5880;52.342;9.662;2023-02-03T03:07:16;101250.28;;;12.29;59.93
11648;BME280;5880;52.342;9.662;2023-02-03T03:10:05;101247.56;;;12.29;59.64
11648;BME280;5880;52.342;9.662;2023-02-03T03:12:39;101237.69;;;12.28;59.68
11648;BME280;5880;52.342;9.662;2023-02-03T03:15:24;101231.56;;;12.25;59.73
11648;BME280;5880;52.342;9.662;2023-02-03T03:18:02;101248.41;;;12.29;59.62
11648;BME280;5880;52.342;9.662;2023-02-03T03:20:30;101250.28;;;12.29;59.70
11648;BME280;5880;52.342;9.662;2023-02-03T03:23:04;101239.13;;;12.30;59.85
11648;BME280;5880;52.342;9.662;2023-02-03T03:25:40;101250.91;;;12.31;59.57
11648;BME280;5880;52.342;9.662;2023-02-03T03:28:16;101257.22;;;12.31;59.70
11648;BME280;5880;52.342;9.662;2023-02-03T03:30:45;101243.75;;;12.30;59.62
11648;BME280;5880;52.342;9.662;2023-02-03T03:33:11;101229.59;;;12.33;59.57
11648;BME280;5880;52.342;9.662;2023-02-03T03:36:02;101224.94;;;12.33;59.42
11648;BME280;5880;52.342;9.662;2023-02-03T03:38:44;101220.53;;;12.32;59.66
11648;BME280;5880;52.342;9.662;2023-02-03T03:41:25;101199.44;;;12.33;59.62
11648;BME280;5880;52.342;9.662;2023-02-03T03:43:58;101205.16;;;12.31;59.57
11648;BME280;5880;52.342;9.662;2023-02-03T03:46:35;101218.25;;;12.29;59.34
11648;BME280;5880;52.342;9.662;2023-02-03T03:49:06;101208.50;;;12.33;59.44
11648;BME280;5880;52.342;9.662;2023-02-03T03:51:49;101205.16;;;12.31;59.38
11648;BME280;5880;52.342;9.662;2023-02-03T03:54:20;101196.47;;;12.34;59.36
11648;BME280;5880;52.342;9.662;2023-02-03T03:57:00;101201.72;;;12.36;59.26
11648;BME280;5880;52.342;9.662;2023-02-03T03:59:31;101198.16;;;12.35;59.35
11648;BME280;5880;52.342;9.662;2023-02-03T04:01:59;101190.75;;;12.36;59.35
11648;BME280;5880;52.342;9.662;2023-02-03T04:04:32;101196.00;;;12.37;59.16
11648;BME280;5880;52.342;9.662;2023-02-03T04:06:58;101203.63;;;12.35;59.35
11648;BME280;5880;52.342;9.662;2023-02-03T04:09:24;101184.22;;;12.37;59.11
11648;BME280;5880;52.342;9.662;2023-02-03T04:11:50;101183.81;;;12.33;59.16
11648;BME280;5880;52.342;9.662;2023-02-03T04:14:35;101183.38;;;12.36;59.12
11648;BME280;5880;52.342;9.662;2023-02-03T04:17:03;101181.47;;;12.37;59.12
11648;BME280;5880;52.342;9.662;2023-02-03T04:19:29;101190.53;;;12.37;58.94
11648;BME280;5880;52.342;9.662;2023-02-03T04:21:55;101186.13;;;12.36;58.94
11648;BME280;5880;52.342;9.662;2023-02-03T04:24:21;101185.88;;;12.38;59.17
11648;BME280;5880;52.342;9.662;2023-02-03T04:26:47;101191.13;;;12.39;59.20
11648;BME280;5880;52.342;9.662;2023-02-03T04:29:12;101179.34;;;12.39;58.86
11648;BME280;5880;52.342;9.662;2023-02-03T04:31:38;101181.00;;;12.40;59.04
11648;BME280;5880;52.342;9.662;2023-02-03T04:34:04;101187.31;;;12.40;58.80
11648;BME280;5880;52.342;9.662;2023-02-03T04:36:30;101179.94;;;12.41;58.92
11648;BME280;5880;52.342;9.662;2023-02-03T04:38:56;101173.25;;;12.37;58.84
11648;BME280;5880;52.342;9.662;2023-02-03T04:41:22;101179.94;;;12.41;59.08
11648;BME280;5880;52.342;9.662;2023-02-03T04:43:48;101186.50;;;12.40;59.00
11648;BME280;5880;52.342;9.662;2023-02-03T04:46:14;101179.56;;;12.37;59.10
11648;BME280;5880;52.342;9.662;2023-02-03T04:48:39;101182.09;;;12.39;59.01
11648;BME280;5880;52.342;9.662;2023-02-03T04:51:07;101184.34;;;12.42;59.07
11648;BME280;5880;52.342;9.662;2023-02-03T04:53:34;101178.66;;;12.43;58.87
11648;BME280;5880;52.342;9.662;2023-02-03T04:56:00;101170.19;;;12.45;58.85
11648;BME280;5880;52.342;9.662;2023-02-03T04:58:26;101172.56;;;12.41;59.01
11648;BME280;5880;52.342;9.662;2023-02-03T05:00:52;101178.66;;;12.43;58.96
11648;BME280;5880;52.342;9.662;2023-02-03T05:03:19;101182.22;;;12.44;58.85
11648;BME280;5880;52.342;9.662;2023-02-03T05:05:45;101177.56;;;12.44;59.15
11648;BME280;5880;52.342;9.662;2023-02-03T05:08:10;101172.91;;;12.45;58.71
11648;BME280;5880;52.342;9.662;2023-02-03T05:10:36;101163.88;;;12.44;58.86
11648;BME280;5880;52.342;9.662;2023-02-03T05:13:02;101166.38;;;12.46;59.14
11648;BME280;5880;52.342;9.662;2023-02-03T05:15:27;101158.16;;;12.46;58.95
11648;BME280;5880;52.342;9.662;2023-02-03T05:17:54;101164.94;;;12.43;58.95
11648;BME280;5880;52.342;9.662;2023-02-03T05:20:21;101153.50;;;12.46;58.70
11648;BME280;5880;52.342;9.662;2023-02-03T05:22:46;101171.41;;;12.49;58.97
11648;BME280;5880;52.342;9.662;2023-02-03T05:25:12;101147.53;;;12.50;58.81
11648;BME280;5880;52.342;9.662;2023-02-03T05:27:39;101144.59;;;12.51;58.73
11648;BME280;5880;52.342;9.662;2023-02-03T05:30:07;101126.22;;;12.52;58.75
11648;BME280;5880;52.342;9.662;2023-02-03T05:32:33;101139.94;;;12.52;58.82
11648;BME280;5880;52.342;9.662;2023-02-03T05:34:58;101146.03;;;12.54;58.56
11648;BME280;5880;52.342;9.662;2023-02-03T05:37:24;101146.03;;;12.54;58.78
11648;BME280;5880;52.342;9.662;2023-02-03T05:39:50;101122.25;;;12.48;58.61
11648;BME280;5880;52.342;9.662;2023-02-03T05:42:15;101139.09;;;12.51;58.75
11648;BME280;5880;52.342;9.662;2023-02-03T05:44:41;101135.75;;;12.49;58.75
11648;BME280;5880;52.342;9.662;2023-02-03T05:47:07;101147.81;;;12.48;58.60
11648;BME280;5880;52.342;9.662;2023-02-03T05:49:32;101136.84;;;12.48;58.53
11648;BME280;5880;52.342;9.662;2023-02-03T05:51:58;101132.66;;;12.45;58.69
11648;BME280;5880;52.342;9.662;2023-02-03T05:54:24;101128.22;;;12.44;58.62
11648;BME280;5880;52.342;9.662;2023-02-03T05:56:49;101122.13;;;12.42;58.65
11648;BME280;5880;52.342;9.662;2023-02-03T05:59:15;101126.78;;;12.42;58.59
11648;BME280;5880;52.342;9.662;2023-02-03T06:01:41;101119.25;;;12.37;58.57
11648;BME280;5880;52.342;9.662;2023-02-03T06:04:07;101129.75;;;12.40;58.66
11648;BME280;5880;52.342;9.662;2023-02-03T06:06:33;101126.19;;;12.40;58.91
11648;BME280;5880;52.342;9.662;2023-02-03T06:09:05;101125.34;;;12.39;58.66
11648;BME280;5880;52.342;9.662;2023-02-03T06:11:32;101132.13;;;12.37;59.03
11648;BME280;5880;52.342;9.662;2023-02-03T06:13:59;101125.81;;;12.36;58.85
11648;BME280;5880;52.342;9.662;2023-02-03T06:16:25;101120.56;;;12.35;58.77
11648;BME280;5880;52.342;9.662;2023-02-03T06:18:53;101138.06;;;12.34;58.99
11648;BME280;5880;52.342;9.662;2023-02-03T06:21:20;101129.00;;;12.33;59.08
11648;BME280;5880;52.342;9.662;2023-02-03T06:23:47;101130.09;;;12.32;58.85
11648;BME280;5880;52.342;9.662;2023-02-03T06:26:13;101130.31;;;12.31;59.02
11648;BME280;5880;52.342;9.662;2023-02-03T06:28:38;101131.38;;;12.30;58.90
11648;BME280;5880;52.342;9.662;2023-02-03T06:31:05;101132.69;;;12.27;59.10
11648;BME280;5880;52.342;9.662;2023-02-03T06:33:31;101127.03;;;12.22;58.96
11648;BME280;5880;52.342;9.662;2023-02-03T06:35:58;101124.69;;;12.25;59.29
11648;BME280;5880;52.342;9.662;2023-02-03T06:38:23;101128.72;;;12.23;58.95
11648;BME280;5880;52.342;9.662;2023-02-03T06:40:49;101141.81;;;12.21;59.00
11648;BME280;5880;52.342;9.662;2023-02-03T06:43:16;101141.00;;;12.20;59.27
11648;BME280;5880;52.342;9.662;2023-02-03T06:45:45;101140.16;;;12.20;59.16
11648;BME280;5880;52.342;9.662;2023-02-03T06:48:12;101137.66;;;12.18;59.23
11648;BME280;5880;52.342;9.662;2023-02-03T06:50:38;101135.38;;;12.15;59.34
11648;BME280;5880;52.342;9.662;2023-02-03T06:53:03;101123.56;;;12.15;59.57
11648;BME280;5880;52.342;9.662;2023-02-03T06:55:29;101121.91;;;12.14;59.45
11648;BME280;5880;52.342;9.662;2023-02-03T06:57:55;101121.28;;;12.12;59.30
11648;BME280;5880;52.342;9.662;2023-02-03T07:00:20;101113.06;;;12.12;59.18
11648;BME280;5880;52.342;9.662;2023-02-03T07:02:56;101105.06;;;12.10;59.53
11648;BME280;5880;52.342;9.662;2023-02-03T07:05:23;101095.19;;;12.09;59.50
11648;BME280;5880;52.342;9.662;2023-02-03T07:07:50;101097.09;;;12.09;59.49
11648;BME280;5880;52.342;9.662;2023-02-03T07:10:16;101103.88;;;12.06;59.49
11648;BME280;5880;52.342;9.662;2023-02-03T07:12:42;101115.06;;;12.04;59.75
11648;BME280;5880;52.342;9.662;2023-02-03T07:15:10;101113.41;;;12.03;59.83
11648;BME280;5880;52.342;9.662;2023-02-03T07:17:36;101102.66;;;12.02;59.50
11648;BME280;5880;52.342;9.662;2023-02-03T07:20:02;101114.66;;;12.01;59.58
11648;BME280;5880;52.342;9.662;2023-02-03T07:22:28;101110.25;;;12.00;59.74
11648;BME280;5880;52.342;9.662;2023-02-03T07:24:56;101116.56;;;12.00;59.75
11648;BME280;5880;52.342;9.662;2023-02-03T07:27:22;101102.03;;;12.00;59.86
11648;BME280;5880;52.342;9.662;2023-02-03T07:29:47;101078.06;;;11.95;59.92
11648;BME280;5880;52.342;9.662;2023-02-03T07:32:13;101094.66;;;12.00;59.90
11648;BME280;5880;52.342;9.662;2023-02-03T07:34:39;101078.00;;;12.02;60.11
11648;BME280;5880;52.342;9.662;2023-02-03T07:37:04;101088.97;;;12.02;60.05
11648;BME280;5880;52.342;9.662;2023-02-03T07:39:30;101080.53;;;12.03;60.02
11648;BME280;5880;52.342;9.662;2023-02-03T07:41:56;101068.47;;;12.04;60.27
11648;BME280;5880;52.342;9.662;2023-02-03T07:44:22;101034.78;;;12.04;60.14
11648;BME280;5880;52.342;9.662;2023-02-03T07:46:47;101046.56;;;12.04;60.29
11648;BME280;5880;52.342;9.662;2023-02-03T07:49:14;101071.22;;;12.04;60.71
11648;BME280;5880;52.342;9.662;2023-02-03T07:51:40;101075.63;;;12.06;60.46
11648;BME280;5880;52.342;9.662;2023-02-03T07:54:06;101076.31;;;12.01;60.22
11648;BME280;5880;52.342;9.662;2023-02-03T07:56:32;101079.22;;;12.06;60.29
11648;BME280;5880;52.342;9.662;2023-02-03T07:58:58;101056.22;;;12.07;60.25
11648;BME280;5880;52.342;9.662;2023-02-03T08:01:25;101058.75;;;12.09;60.58
11648;BME280;5880;52.342;9.662;2023-02-03T08:03:54;101062.91;;;12.11;60.24
11648;BME280;5880;52.342;9.662;2023-02-03T08:06:19;101068.16;;;12.13;60.69
11648;BME280;5880;52.342;9.662;2023-02-03T08:08:45;101065.19;;;12.14;60.46
11648;BME280;5880;52.342;9.662;2023-02-03T08:11:11;101047.69;;;12.15;60.74
11648;BME280;5880;52.342;9.662;2023-02-03T08:13:36;101057.34;;;12.18;60.37
11648;BME280;5880;52.342;9.662;2023-02-03T08:16:02;101050.56;;;12.20;60.41
11648;BME280;5880;52.342;9.662;2023-02-03T08:18:28;101061.03;;;12.23;60.71
11648;BME280;5880;52.342;9.662;2023-02-03T08:20:54;101062.72;;;12.24;60.88
11648;BME280;5880;52.342;9.662;2023-02-03T08:23:19;101044.59;;;12.23;60.45
11648;BME280;5880;52.342;9.662;2023-02-03T08:25:50;101043.69;;;12.30;60.72
11648;BME280;5880;52.342;9.662;2023-02-03T08:28:16;101035.22;;;12.31;60.67
11648;BME280;5880;52.342;9.662;2023-02-03T08:30:45;101023.66;;;12.29;60.48
11648;BME280;5880;52.342;9.662;2023-02-03T08:33:10;101053.69;;;12.36;60.66
11648;BME280;5880;52.342;9.662;2023-02-03T08:35:36;101072.44;;;12.39;60.67
11648;BME280;5880;52.342;9.662;2023-02-03T08:38:02;101062.06;;;12.41;60.78
11648;BME280;5880;52.342;9.662;2023-02-03T08:40:28;101056.00;;;12.39;60.71
11648;BME280;5880;52.342;9.662;2023-02-03T08:42:53;101070.66;;;12.44;60.75
11648;BME280;5880;52.342;9.662;2023-02-03T08:45:19;101067.69;;;12.46;60.52
11648;BME280;5880;52.342;9.662;2023-02-03T08:47:45;101067.44;;;12.48;60.81
11648;BME280;5880;52.342;9.662;2023-02-03T08:50:11;101055.41;;;12.49;60.77
11648;BME280;5880;52.342;9.662;2023-02-03T08:52:38;101051.59;;;12.50;60.61
11648;BME280;5880;52.342;9.662;2023-02-03T08:55:05;101056.03;;;12.51;60.47
11648;BME280;5880;52.342;9.662;2023-02-03T08:57:33;101064.00;;;12.52;60.66
11648;BME280;5880;52.342;9.662;2023-02-03T08:59:59;101063.16;;;12.52;60.41
11648;BME280;5880;52.342;9.662;2023-02-03T09:02:25;101057.91;;;12.50;60.41
11648;BME280;5880;52.342;9.662;2023-02-03T09:04:50;101072.69;;;12.49;60.75
11648;BME280;5880;52.342;9.662;2023-02-03T09:07:16;101083.88;;;12.48;60.64
11648;BME280;5880;52.342;9.662;2023-02-03T09:09:42;101069.13;;;12.49;60.41
11648;BME280;5880;52.342;9.662;2023-02-03T09:12:08;101080.69;;;12.51;60.74
11648;BME280;5880;52.342;9.662;2023-02-03T09:14:36;101079.00;;;12.50;60.43
11648;BME280;5880;52.342;9.662;2023-02-03T09:17:04;101067.59;;;12.53;60.86
11648;BME280;5880;52.342;9.662;2023-02-03T09:19:30;101063.75;;;12.54;60.68
11648;BME280;5880;52.342;9.662;2023-02-03T09:21:56;101083.56;;;12.56;60.86
11648;BME280;5880;52.342;9.662;2023-02-03T09:24:22;101084.16;;;12.58;60.85
11648;BME280;5880;52.342;9.662;2023-02-03T09:26:49;101083.69;;;12.61;60.74
11648;BME280;5880;52.342;9.662;2023-02-03T09:29:15;101071.41;;;12.63;60.73
11648;BME280;5880;52.342;9.662;2023-02-03T09:31:41;101089.56;;;12.64;60.78
11648;BME280;5880;52.342;9.662;2023-02-03T09:34:07;101072.84;;;12.66;60.85
11648;BME280;5880;52.342;9.662;2023-02-03T09:36:33;101070.94;;;12.66;60.81
11648;BME280;5880;52.342;9.662;2023-02-03T09:38:59;101079.75;;;12.68;60.74
11648;BME280;5880;52.342;9.662;2023-02-03T09:42:07;101074.53;;;12.67;60.68
11648;BME280;5880;52.342;9.662;2023-02-03T09:47:38;101086.44;;;12.61;60.55
11648;BME280;5880;52.342;9.662;2023-02-03T09:50:13;101068.94;;;12.62;60.65
11648;BME280;5880;52.342;9.662;2023-02-03T09:52:41;101070.19;;;12.59;60.52
11648;BME280;5880;52.342;9.662;2023-02-03T09:55:35;101083.91;;;12.59;60.63
11648;BME280;5880;52.342;9.662;2023-02-03T09:58:15;101064.97;;;12.58;60.56
11648;BME280;5880;52.342;9.662;2023-02-03T10:00:51;101088.22;;;12.55;60.52
11648;BME280;5880;52.342;9.662;2023-02-03T10:03:45;101089.03;;;12.56;60.76
11648;BME280;5880;52.342;9.662;2023-02-03T10:06:32;101064.59;;;12.54;60.93
11648;BME280;5880;52.342;9.662;2023-02-03T10:09:24;101063.75;;;12.54;60.79
11648;BME280;5880;52.342;9.662;2023-02-03T10:12:42;101066.59;;;12.47;60.91
11648;BME280;5880;52.342;9.662;2023-02-03T10:15:36;101072.47;;;12.51;60.70
11648;BME280;5880;52.342;9.662;2023-02-03T10:18:12;101088.06;;;12.50;61.20
11648;BME280;5880;52.342;9.662;2023-02-03T10:21:16;101085.09;;;12.52;60.92
11648;BME280;5880;52.342;9.662;2023-02-03T10:23:45;101081.75;;;12.50;60.80
11648;BME280;5880;52.342;9.662;2023-02-03T10:26:25;101100.84;;;12.56;61.04
11648;BME280;5880;52.342;9.662;2023-02-03T10:29:05;101088.44;;;12.54;60.77
11648;BME280;5880;52.342;9.662;2023-02-03T10:31:35;101097.28;;;12.56;61.08
11648;BME280;5880;52.342;9.662;2023-02-03T10:34:10;101101.94;;;12.55;61.04
11648;BME280;5880;52.342;9.662;2023-02-03T10:36:53;101118.97;;;12.57;60.89
11648;BME280;5880;52.342;9.662;2023-02-03T10:39:46;101132.91;;;12.56;60.68
11648;BME280;5880;52.342;9.662;2023-02-03T10:42:13;101132.31;;;12.54;61.08
11648;BME280;5880;52.342;9.662;2023-02-03T10:44:48;101143.06;;;12.55;60.89
11648;BME280;5880;52.342;9.662;2023-02-03T10:47:24;101143.88;;;12.56;60.97
11648;BME280;5880;52.342;9.662;2023-02-03T10:49:54;101144.09;;;12.54;60.82
11648;BME280;5880;52.342;9.662;2023-02-03T10:52:35;101138.41;;;12.56;60.69
11648;BME280;5880;52.342;9.662;2023-02-03T10:55:27;101134.66;;;12.50;60.93
11648;BME280;5880;52.342;9.662;2023-02-03T10:57:55;101142.44;;;12.53;60.89
11648;BME280;5880;52.342;9.662;2023-02-03T11:00:32;101131.84;;;12.57;60.94
11648;BME280;5880;52.342;9.662;2023-02-03T11:03:22;101129.69;;;12.59;60.97
11648;BME280;5880;52.342;9.662;2023-02-03T11:06:25;101128.88;;;12.58;61.07
11648;BME280;5880;52.342;9.662;2023-02-03T11:08:52;101137.09;;;12.58;61.20
11648;BME280;5880;52.342;9.662;2023-02-03T11:11:27;101142.97;;;12.62;61.19
11648;BME280;5880;52.342;9.662;2023-02-03T11:14:11;101128.41;;;12.61;60.85
11648;BME280;5880;52.342;9.662;2023-02-03T11:16:41;101145.84;;;12.67;61.01
11648;BME280;5880;52.342;9.662;2023-02-03T11:19:21;101163.47;;;12.71;60.75
11648;BME280;5880;52.342;9.662;2023-02-03T11:21:50;101148.72;;;12.72;60.73
11648;BME280;5880;52.342;9.662;2023-02-03T11:24:26;101152.06;;;12.74;60.72
11648;BME280;5880;52.342;9.662;2023-02-03T11:26:57;101168.25;;;12.76;60.83
11648;BME280;5880;52.342;9.662;2023-02-03T11:29:30;101173.75;;;12.76;60.59
11648;BME280;5880;52.342;9.662;2023-02-03T11:34:45;101174.97;;;12.80;60.74
11648;BME280;5880;52.342;9.662;2023-02-03T11:37:37;101170.91;;;12.82;60.86
11648;BME280;5880;52.342;9.662;2023-02-03T11:42:33;101177.38;;;12.88;61.05
11648;BME280;5880;52.342;9.662;2023-02-03T11:47:47;101162.38;;;12.91;60.74
11648;BME280;5880;52.342;9.662;2023-02-03T11:50:26;101167.59;;;12.92;60.92
11648;BME280;5880;52.342;9.662;2023-02-03T11:55:49;101169.50;;;12.92;60.66
11648;BME280;5880;52.342;9.662;2023-02-03T11:58:43;101162.00;;;12.99;60.81
11648;BME280;5880;52.342;9.662;2023-02-03T12:04:31;101173.38;;;13.02;60.53
11648;BME280;5880;52.342;9.662;2023-02-03T12:07:28;101180.28;;;13.05;60.68
11648;BME280;5880;52.342;9.662;2023-02-03T12:10:20;101177.31;;;13.06;60.56
11648;BME280;5880;52.342;9.662;2023-02-03T12:15:50;101191.38;;;13.10;60.46
11648;BME280;5880;52.342;9.662;2023-02-03T12:19:22;101198.09;;;13.14;60.34
11648;BME280;5880;52.342;9.662;2023-02-03T12:21:45;101206.94;;;13.16;60.38
11648;BME280;5880;52.342;9.662;2023-02-03T12:24:39;101210.03;;;13.20;60.22
11648;BME280;5880;52.342;9.662;2023-02-03T12:30:31;101200.25;;;13.24;60.02
11648;BME280;5880;52.342;9.662;2023-02-03T12:33:09;101207.41;;;13.25;60.26
11648;BME280;5880;52.342;9.662;2023-02-03T12:35:51;101208.91;;;13.27;60.04
11648;BME280;5880;52.342;9.662;2023-02-03T12:38:35;101206.50;;;13.31;60.09
11648;BME280;5880;52.342;9.662;2023-02-03T12:41:12;101215.34;;;13.33;59.62
11648;BME280;5880;52.342;9.662;2023-02-03T12:43:44;101202.22;;;13.35;59.64
11648;BME280;5880;52.342;9.662;2023-02-03T12:46:40;101203.03;;;13.36;59.12
11648;BME280;5880;52.342;9.662;2023-02-03T12:49:43;101203.03;;;13.36;58.95
11648;BME280;5880;52.342;9.662;2023-02-03T12:52:21;101222.50;;;13.34;58.93
11648;BME280;5880;52.342;9.662;2023-02-03T12:57:39;101213.81;;;13.37;58.84
11648;BME280;5880;52.342;9.662;2023-02-03T13:00:45;101226.44;;;13.38;58.65
11648;BME280;5880;52.342;9.662;2023-02-03T13:06:23;101207.44;;;13.37;57.97
11648;BME280;5880;52.342;9.662;2023-02-03T13:11:59;101210.56;;;13.40;57.62
11648;BME280;5880;52.342;9.662;2023-02-03T13:17:26;101229.91;;;13.45;57.11
11648;BME280;5880;52.342;9.662;2023-02-03T13:19:59;101239.84;;;13.46;56.87
11648;BME280;5880;52.342;9.662;2023-02-03T13:22:27;101239.84;;;13.46;56.67
11648;BME280;5880;52.342;9.662;2023-02-03T13:28:15;101238.03;;;13.52;56.68
11648;BME280;5880;52.342;9.662;2023-02-03T13:31:35;101246.50;;;13.50;56.71
11648;BME280;5880;52.342;9.662;2023-02-03T13:37:56;101258.81;;;13.48;56.21
11648;BME280;5880;52.342;9.662;2023-02-03T13:40:48;101259.91;;;13.47;56.25
11648;BME280;5880;52.342;9.662;2023-02-03T13:43:25;101257.97;;;13.47;56.14
11648;BME280;5880;52.342;9.662;2023-02-03T13:45:53;101259.41;;;13.50;55.96
11648;BME280;5880;52.342;9.662;2023-02-03T13:48:29;101255.34;;;13.52;55.58
11648;BME280;5880;52.342;9.662;2023-02-03T13:51:12;101254.75;;;13.50;55.50
11648;BME280;5880;52.342;9.662;2023-02-03T13:53:42;101271.59;;;13.54;55.35
11648;BME280;5880;52.342;9.662;2023-02-03T13:56:19;101260.41;;;13.56;55.33
11648;BME280;5880;52.342;9.662;2023-02-03T13:59:03;101269.47;;;13.56;55.38
11648;BME280;5880;52.342;9.662;2023-02-03T14:01:38;101265.88;;;13.56;55.13
11648;BME280;5880;52.342;9.662;2023-02-03T14:04:07;101283.66;;;13.53;55.02
11648;BME280;5880;52.342;9.662;2023-02-03T14:15:16;101307.06;;;13.44;54.52
11648;BME280;5880;52.342;9.662;2023-02-03T14:22:56;101292.34;;;13.38;54.35
11648;BME280;5880;52.342;9.662;2023-02-03T14:25:24;101295.31;;;13.37;54.29
11648;BME280;5880;52.342;9.662;2023-02-03T14:28:09;101298.06;;;13.37;54.21
11648;BME280;5880;52.342;9.662;2023-02-03T14:36:29;101319.06;;;13.31;54.24
11648;BME280;5880;52.342;9.662;2023-02-03T14:39:01;101320.38;;;13.28;54.04
11648;BME280;5880;52.342;9.662;2023-02-03T14:50:49;101336.75;;;13.17;53.56